Time;durP1;ratioP1;P1;durP2;ratioP2;P2;SDS_P1;SDS_P2;PMS_P1;PMS_P2;Temp;Humidity;BMP_temperature;BMP_pressure;BME280_temperature;BME280_humidity;BME280_pressure;Samples;Min_cycle;Max_cycle;Signal;HPM_P1;HPM_P2
2022/10/22 00:00:16;;;;;;;6.25;1.67;;;14.60;99.90;;;;;;4993822;28;20041;-75
2022/10/22 00:02:43;;;;;;;4.40;1.58;;;14.70;99.90;;;;;;4992238;28;20450;-74
2022/10/22 00:05:09;;;;;;;2.45;1.30;;;14.70;99.90;;;;;;4991644;28;20046;-73
2022/10/22 00:07:36;;;;;;;7.03;1.52;;;14.60;99.90;;;;;;4991232;28;20391;-74
2022/10/22 00:10:04;;;;;;;3.90;1.65;;;14.60;99.90;;;;;;4991699;28;20028;-74
2022/10/22 00:12:31;;;;;;;3.38;1.50;;;14.50;99.90;;;;;;4990890;28;20392;-74
2022/10/22 00:14:57;;;;;;;5.10;1.23;;;14.50;99.90;;;;;;4991357;28;20045;-73
2022/10/22 00:17:26;;;;;;;6.50;2.45;;;14.50;99.90;;;;;;4992567;28;20400;-73
2022/10/22 00:19:52;;;;;;;4.90;1.55;;;14.50;99.90;;;;;;4991614;28;20075;-75
2022/10/22 00:22:19;;;;;;;2.03;1.27;;;14.60;99.90;;;;;;4992648;28;20045;-74
2022/10/22 00:24:45;;;;;;;5.05;1.40;;;14.60;99.90;;;;;;4990541;28;20634;-74
2022/10/22 00:27:12;;;;;;;3.33;1.38;;;14.70;99.90;;;;;;4991459;28;20053;-74
2022/10/22 00:29:38;;;;;;;2.22;1.10;;;14.70;99.90;;;;;;4992120;28;20041;-74
2022/10/22 00:32:05;;;;;;;2.78;0.70;;;14.60;99.90;;;;;;4992769;28;20026;-73
2022/10/22 00:34:32;;;;;;;3.08;0.77;;;14.70;99.90;;;;;;4988958;28;20038;-73
2022/10/22 00:36:58;;;;;;;2.78;0.50;;;14.70;99.90;;;;;;4992574;28;20464;-75
2022/10/22 00:39:25;;;;;;;1.92;0.50;;;14.80;99.90;;;;;;4991067;28;20050;-74
2022/10/22 00:41:54;;;;;;;0.57;0.40;;;14.80;99.90;;;;;;4991892;28;20034;-74
2022/10/22 00:44:58;;;;;;;0.80;0.30;;;14.80;99.90;;;;;;5005895;28;20039;-74
2022/10/22 00:47:30;;;;;;;2.00;0.43;;;14.90;99.90;;;;;;4985993;28;20034;-74
2022/10/22 00:49:58;;;;;;;1.90;0.50;;;15.00;99.90;;;;;;4986546;28;20050;-75
2022/10/22 00:52:28;;;;;;;1.42;0.68;;;15.00;99.90;;;;;;4993545;28;20472;-75
2022/10/22 00:54:55;;;;;;;2.40;0.30;;;15.00;99.90;;;;;;4990515;28;20030;-74
2022/10/22 00:57:21;;;;;;;2.15;0.43;;;15.00;99.90;;;;;;4992120;28;20057;-74
2022/10/22 00:59:48;;;;;;;2.05;0.35;;;15.00;99.90;;;;;;4967546;28;20038;-74
2022/10/22 01:02:15;;;;;;;2.88;0.60;;;15.00;99.90;;;;;;4991866;28;20030;-74
2022/10/22 01:04:41;;;;;;;0.90;0.52;;;15.00;99.90;;;;;;4988527;28;20049;-74
2022/10/22 01:07:22;;;;;;;1.55;0.50;;;15.00;99.90;;;;;;4991958;28;20464;-74
2022/10/22 01:10:01;;;;;;;1.42;0.38;;;15.00;99.90;;;;;;4989849;28;20199;-74
2022/10/22 01:12:33;;;;;;;3.22;0.57;;;14.90;99.90;;;;;;4991970;28;20030;-74
2022/10/22 01:15:09;;;;;;;1.25;0.43;;;14.90;99.90;;;;;;4990723;28;20031;-74
2022/10/22 01:17:50;;;;;;;2.50;0.30;;;14.80;99.90;;;;;;4990637;28;20169;-75
2022/10/22 01:20:23;;;;;;;2.35;0.30;;;14.80;99.90;;;;;;4995210;28;20034;-73
2022/10/22 01:22:56;;;;;;;3.78;0.60;;;14.70;99.90;;;;;;4995660;28;20030;-74
2022/10/22 01:26:19;;;;;;;1.00;0.38;;;14.70;99.90;;;;;;4994519;28;20030;-74
2022/10/22 01:29:03;;;;;;;1.35;0.52;;;14.70;99.90;;;;;;4940835;28;20046;-75
2022/10/22 01:31:36;;;;;;;1.83;1.15;;;14.60;99.90;;;;;;4994194;28;20034;-76
2022/10/22 01:34:04;;;;;;;2.20;0.38;;;14.60;99.90;;;;;;4994250;28;20034;-75
2022/10/22 01:36:32;;;;;;;2.78;1.17;;;14.50;99.90;;;;;;4977480;28;20046;-75
2022/10/22 01:39:00;;;;;;;2.03;0.38;;;14.50;99.90;;;;;;4994713;28;20038;-75
2022/10/22 01:41:31;;;;;;;2.15;0.40;;;14.50;99.90;;;;;;4995890;28;20030;-75
2022/10/22 01:43:57;;;;;;;0.77;0.30;;;14.40;99.90;;;;;;4995984;28;20058;-75
2022/10/22 01:46:26;;;;;;;2.20;0.50;;;14.40;99.90;;;;;;4993890;28;20042;-75
2022/10/22 01:49:21;;;;;;;0.65;0.35;;;14.30;99.90;;;;;;4993457;28;20038;-75
2022/10/22 01:51:59;;;;;;;2.78;0.63;;;14.30;99.90;;;;;;4995121;28;20049;-75
2022/10/22 01:54:44;;;;;;;2.13;0.30;;;14.30;99.90;;;;;;4988237;28;20046;-75
2022/10/22 01:57:40;;;;;;;1.45;0.57;;;14.30;99.90;;;;;;4995757;28;20051;-74
2022/10/22 02:00:13;;;;;;;2.15;0.57;;;14.30;99.90;;;;;;4995573;28;20034;-74
2022/10/22 02:02:57;;;;;;;3.05;0.60;;;14.30;99.90;;;;;;4988883;28;20042;-74
2022/10/22 02:05:28;;;;;;;1.88;0.43;;;14.30;99.90;;;;;;4994311;28;20038;-74
2022/10/22 02:08:08;;;;;;;2.05;0.52;;;14.30;99.90;;;;;;4993497;28;20034;-74
2022/10/22 02:10:38;;;;;;;1.35;0.63;;;14.20;99.90;;;;;;4994598;28;20564;-73
2022/10/22 02:13:09;;;;;;;6.50;0.80;;;14.20;99.90;;;;;;4995363;28;20038;-74
2022/10/22 02:15:37;;;;;;;1.40;0.40;;;14.20;99.90;;;;;;5007245;28;20047;-75
2022/10/22 02:18:07;;;;;;;1.48;0.50;;;14.20;99.90;;;;;;4994264;28;20050;-75
2022/10/22 02:20:36;;;;;;;2.15;0.40;;;14.10;99.90;;;;;;4995156;28;20035;-74
2022/10/22 02:23:03;;;;;;;5.15;0.50;;;14.10;99.90;;;;;;4995271;28;20088;-73
2022/10/22 02:25:36;;;;;;;0.63;0.30;;;14.10;99.90;;;;;;4991350;28;20042;-73
2022/10/22 02:28:48;;;;;;;2.65;0.43;;;14.10;99.90;;;;;;4992477;28;20053;-73
2022/10/22 02:31:20;;;;;;;1.33;0.50;;;14.10;99.90;;;;;;4915177;29;20083;-74
2022/10/22 02:33:51;;;;;;;2.03;0.43;;;14.00;99.90;;;;;;4976026;28;20046;-74
2022/10/22 02:36:18;;;;;;;1.67;0.68;;;14.00;99.90;;;;;;4995523;28;20031;-74
2022/10/22 02:38:46;;;;;;;1.45;0.70;;;14.10;99.90;;;;;;5002332;28;20050;-73
2022/10/22 02:41:13;;;;;;;0.95;0.22;;;14.10;99.90;;;;;;4995155;28;20031;-74
2022/10/22 02:43:49;;;;;;;1.20;0.45;;;14.10;99.90;;;;;;5012697;28;20038;-75
2022/10/22 02:46:15;;;;;;;3.08;0.47;;;14.10;99.90;;;;;;5014068;28;20047;-75
2022/10/22 02:48:41;;;;;;;0.80;0.38;;;14.10;99.90;;;;;;4999542;28;20039;-74
2022/10/22 02:51:07;;;;;;;3.17;0.60;;;14.00;99.90;;;;;;4995029;28;20073;-73
2022/10/22 02:53:33;;;;;;;3.83;0.57;;;14.00;99.90;;;;;;4994277;28;20031;-75
2022/10/22 02:56:00;;;;;;;1.52;0.52;;;14.10;99.90;;;;;;4991587;28;20046;-74
2022/10/22 02:58:26;;;;;;;1.65;0.70;;;14.00;99.90;;;;;;4994433;28;20039;-73
2022/10/22 03:00:52;;;;;;;1.30;0.60;;;14.00;99.90;;;;;;4993754;28;20042;-73
2022/10/22 03:03:18;;;;;;;1.13;0.50;;;14.00;99.90;;;;;;4994416;28;20098;-74
2022/10/22 03:05:44;;;;;;;1.70;1.00;;;14.00;99.90;;;;;;4992238;28;20035;-74
2022/10/22 03:08:11;;;;;;;1.48;0.50;;;14.00;99.90;;;;;;4993387;28;20451;-74
2022/10/22 03:10:37;;;;;;;1.17;0.70;;;14.00;99.90;;;;;;4992342;28;20499;-75
2022/10/22 03:13:03;;;;;;;1.83;0.60;;;14.00;99.90;;;;;;4992975;28;20050;-73
2022/10/22 03:15:29;;;;;;;1.48;0.52;;;14.00;99.90;;;;;;4990870;28;20038;-73
2022/10/22 03:17:55;;;;;;;1.50;0.60;;;13.90;99.90;;;;;;4993469;28;20034;-74
2022/10/22 03:20:21;;;;;;;1.08;0.43;;;13.90;99.90;;;;;;4993066;28;20050;-74
2022/10/22 03:22:48;;;;;;;1.60;0.57;;;13.80;99.90;;;;;;4993416;28;20031;-73
2022/10/22 03:25:22;;;;;;;1.70;0.52;;;13.80;99.90;;;;;;4992915;28;20031;-73
2022/10/22 03:27:51;;;;;;;1.25;0.40;;;13.80;99.90;;;;;;4993373;28;20046;-73
2022/10/22 03:30:17;;;;;;;1.35;0.70;;;13.80;99.90;;;;;;4993094;28;20034;-73
2022/10/22 03:32:43;;;;;;;3.28;0.57;;;13.80;99.90;;;;;;4991666;28;20042;-73
2022/10/22 03:35:10;;;;;;;1.92;0.52;;;13.90;99.90;;;;;;4985975;28;20042;-74
2022/10/22 03:37:36;;;;;;;1.55;0.60;;;13.90;99.90;;;;;;4993270;28;20045;-75
2022/10/22 03:40:04;;;;;;;1.67;0.75;;;13.90;99.90;;;;;;4993666;28;20456;-74
2022/10/22 03:42:31;;;;;;;1.05;0.57;;;13.80;99.90;;;;;;4993554;28;20034;-74
2022/10/22 03:44:57;;;;;;;1.08;0.57;;;13.80;99.90;;;;;;4986765;28;20122;-74
2022/10/22 03:47:23;;;;;;;9.55;0.80;;;13.70;99.90;;;;;;4992343;28;20053;-74
2022/10/22 03:49:53;;;;;;;1.25;0.75;;;13.70;99.90;;;;;;4992640;28;20061;-75
2022/10/22 03:52:19;;;;;;;1.98;0.75;;;13.60;99.90;;;;;;4992916;28;20061;-74
2022/10/22 03:54:45;;;;;;;1.17;0.70;;;13.60;99.90;;;;;;4991898;28;20042;-74
2022/10/22 03:57:11;;;;;;;4.50;1.95;;;13.50;99.90;;;;;;4993294;28;20042;-74
2022/10/22 03:59:41;;;;;;;1.98;0.98;;;13.40;99.90;;;;;;4992729;28;20037;-74
2022/10/22 04:02:09;;;;;;;4.93;1.00;;;13.50;99.90;;;;;;4993320;28;20026;-74
2022/10/22 04:04:36;;;;;;;2.42;1.00;;;13.50;99.90;;;;;;4991416;28;20042;-76
2022/10/22 04:07:04;;;;;;;1.88;0.82;;;13.40;99.90;;;;;;4992962;28;20045;-74
2022/10/22 04:09:31;;;;;;;2.90;0.80;;;13.30;99.90;;;;;;4993015;28;20057;-74
2022/10/22 04:11:58;;;;;;;3.95;0.80;;;13.20;99.90;;;;;;4992301;28;20037;-74
2022/10/22 04:14:24;;;;;;;3.63;0.85;;;13.10;99.90;;;;;;4991953;28;20495;-74
2022/10/22 04:16:50;;;;;;;1.33;0.82;;;13.00;99.90;;;;;;4991288;28;20046;-75
2022/10/22 04:19:17;;;;;;;2.25;0.77;;;12.90;99.90;;;;;;4992993;28;20034;-75
2022/10/22 04:21:43;;;;;;;3.15;1.13;;;12.90;99.90;;;;;;4991055;28;20049;-75
2022/10/22 04:24:09;;;;;;;3.22;0.85;;;12.80;99.90;;;;;;4991369;28;20042;-75
2022/10/22 04:26:36;;;;;;;2.88;0.93;;;12.70;99.90;;;;;;4992683;28;20030;-76
2022/10/22 04:29:02;;;;;;;2.80;1.23;;;12.70;99.90;;;;;;4991341;28;20045;-74
2022/10/22 04:31:28;;;;;;;1.27;0.55;;;12.50;99.90;;;;;;5007834;28;20042;-74
2022/10/22 04:33:56;;;;;;;3.42;0.95;;;12.50;99.90;;;;;;4989621;28;20026;-74
2022/10/22 04:36:23;;;;;;;1.98;0.77;;;12.50;99.90;;;;;;4992666;28;20034;-74
2022/10/22 04:38:56;;;;;;;2.22;0.85;;;12.50;99.90;;;;;;4991669;28;20065;-75
2022/10/22 04:41:28;;;;;;;1.80;0.70;;;12.60;99.90;;;;;;4985338;28;20042;-74
2022/10/22 04:43:55;;;;;;;2.85;0.80;;;12.50;99.90;;;;;;4989482;28;20038;-74
2022/10/22 04:46:22;;;;;;;1.17;0.50;;;12.50;99.90;;;;;;4990023;28;20031;-74
2022/10/22 04:48:50;;;;;;;2.33;0.70;;;12.50;99.90;;;;;;5006572;28;20061;-74
2022/10/22 04:51:18;;;;;;;1.92;0.55;;;12.40;99.90;;;;;;4991412;28;20046;-74
2022/10/22 04:53:45;;;;;;;2.78;0.50;;;12.40;99.90;;;;;;4990184;28;20049;-75
2022/10/22 04:56:19;;;;;;;1.45;0.43;;;12.40;99.90;;;;;;4991047;28;20030;-73
2022/10/22 04:58:54;;;;;;;2.50;0.57;;;12.50;99.90;;;;;;4983192;28;20058;-75
2022/10/22 05:01:24;;;;;;;0.82;0.50;;;12.70;99.90;;;;;;4991117;28;20038;-75
2022/10/22 05:03:52;;;;;;;1.33;0.45;;;12.90;99.90;;;;;;4990115;28;20038;-75
2022/10/22 05:06:19;;;;;;;1.33;0.85;;;13.00;99.90;;;;;;4991404;28;20029;-75
2022/10/22 05:08:46;;;;;;;1.40;0.47;;;13.10;99.90;;;;;;4990082;28;20064;-75
2022/10/22 05:11:18;;;;;;;1.67;0.43;;;13.00;99.90;;;;;;4992414;28;20038;-75
2022/10/22 05:13:45;;;;;;;1.38;0.52;;;13.00;99.90;;;;;;4990983;28;20372;-75
2022/10/22 05:16:12;;;;;;;1.23;0.45;;;13.00;99.90;;;;;;4991482;28;20030;-74
2022/10/22 05:18:40;;;;;;;1.55;0.43;;;13.00;99.90;;;;;;4992025;28;20038;-75
2022/10/22 05:21:15;;;;;;;0.80;0.50;;;13.00;99.90;;;;;;4992414;28;20026;-74
2022/10/22 05:23:42;;;;;;;1.17;0.60;;;13.00;99.90;;;;;;4990533;28;20046;-76
2022/10/22 05:26:10;;;;;;;0.95;0.50;;;12.90;99.90;;;;;;4991852;28;20090;-74
2022/10/22 05:28:39;;;;;;;2.78;0.50;;;13.00;99.90;;;;;;4992294;28;20487;-74
2022/10/22 05:31:07;;;;;;;2.35;0.70;;;12.90;99.90;;;;;;4991626;28;20041;-74
2022/10/22 05:33:34;;;;;;;1.55;0.60;;;12.90;99.90;;;;;;4991934;28;20033;-74
2022/10/22 05:36:03;;;;;;;2.63;0.50;;;12.90;99.90;;;;;;4989790;28;20038;-73
2022/10/22 05:38:30;;;;;;;2.60;0.52;;;12.80;99.90;;;;;;4992183;28;20046;-75
2022/10/22 05:41:08;;;;;;;2.35;0.90;;;12.90;99.90;;;;;;4990035;28;20046;-74
2022/10/22 05:43:36;;;;;;;1.17;0.40;;;12.80;99.90;;;;;;4990273;28;20145;-75
2022/10/22 05:46:12;;;;;;;0.57;0.38;;;12.90;99.90;;;;;;4985928;28;20030;-74
2022/10/22 05:48:39;;;;;;;1.08;0.45;;;12.90;99.90;;;;;;4991359;28;20041;-75
2022/10/22 05:51:11;;;;;;;2.17;0.77;;;12.90;99.90;;;;;;4992025;28;20046;-74
2022/10/22 05:53:39;;;;;;;1.23;0.40;;;12.90;99.90;;;;;;4990941;28;20090;-76
2022/10/22 05:56:11;;;;;;;1.95;0.60;;;12.90;99.90;;;;;;4990819;28;20046;-75
2022/10/22 05:58:37;;;;;;;0.60;0.25;;;13.00;99.90;;;;;;4992275;28;20038;-74
2022/10/22 06:01:26;;;;;;;2.88;0.75;;;13.10;99.90;;;;;;4991016;28;20034;-73
2022/10/22 06:03:53;;;;;;;1.77;0.63;;;13.10;99.90;;;;;;4991025;28;20400;-74
2022/10/22 06:06:25;;;;;;;1.08;0.50;;;13.00;99.90;;;;;;4992883;28;20387;-74
2022/10/22 06:08:53;;;;;;;2.97;0.88;;;13.00;99.90;;;;;;4993577;28;20046;-73
2022/10/22 06:11:21;;;;;;;1.38;0.82;;;13.00;99.90;;;;;;4988545;28;20034;-73
2022/10/22 06:13:48;;;;;;;1.75;0.73;;;12.90;99.90;;;;;;4993169;28;20050;-72
2022/10/22 06:16:15;;;;;;;3.90;1.20;;;13.00;99.90;;;;;;4992528;28;20034;-71
2022/10/22 06:18:41;;;;;;;3.08;1.08;;;13.00;99.90;;;;;;4994865;28;20499;-73
2022/10/22 06:21:11;;;;;;;2.70;1.23;;;13.00;99.90;;;;;;4995261;28;20045;-72
2022/10/22 06:23:41;;;;;;;3.63;1.00;;;13.00;99.90;;;;;;4994471;28;20383;-72
2022/10/22 06:26:10;;;;;;;2.15;0.90;;;13.00;99.90;;;;;;4995505;28;20046;-73
2022/10/22 06:28:37;;;;;;;3.67;1.95;;;12.90;99.90;;;;;;4995513;28;20042;-81
2022/10/22 06:31:03;;;;;;;2.20;0.95;;;12.90;99.90;;;;;;4994943;28;20045;-73
2022/10/22 06:33:32;;;;;;;3.13;0.98;;;13.00;99.90;;;;;;4994422;28;20448;-75
2022/10/22 06:36:19;;;;;;;2.97;1.00;;;12.90;99.90;;;;;;4994355;28;20211;-73
2022/10/22 06:38:45;;;;;;;2.95;1.10;;;12.90;99.90;;;;;;4988037;28;20038;-74
2022/10/22 06:41:15;;;;;;;1.75;1.27;;;12.80;99.90;;;;;;4995238;28;20033;-74
2022/10/22 06:43:46;;;;;;;5.85;0.80;;;12.80;99.90;;;;;;5007309;28;20042;-73
2022/10/22 06:46:14;;;;;;;3.88;1.17;;;12.80;99.90;;;;;;4993412;28;20483;-73
2022/10/22 06:48:41;;;;;;;2.53;1.42;;;12.80;99.90;;;;;;4994787;28;20490;-75
2022/10/22 06:51:09;;;;;;;4.05;1.35;;;12.80;99.90;;;;;;4995457;28;20043;-73
2022/10/22 06:53:37;;;;;;;3.33;1.48;;;12.80;99.90;;;;;;4991563;28;20053;-73
2022/10/22 06:56:09;;;;;;;5.28;1.83;;;12.90;99.90;;;;;;4994351;28;20030;-74
2022/10/22 06:58:35;;;;;;;4.75;1.52;;;13.00;99.90;;;;;;4996064;28;20069;-72
2022/10/22 07:01:07;;;;;;;4.53;1.45;;;13.10;99.90;;;;;;5015839;28;20045;-74
2022/10/22 07:03:33;;;;;;;2.83;0.95;;;13.30;99.90;;;;;;5012684;28;20030;-73
2022/10/22 07:06:01;;;;;;;2.25;0.90;;;13.50;99.90;;;;;;4994670;28;20625;-71
2022/10/22 07:08:28;;;;;;;1.95;0.70;;;13.60;99.90;;;;;;4986000;28;20031;-73
2022/10/22 07:10:55;;;;;;;3.08;0.63;;;13.70;99.90;;;;;;4987602;28;20086;-73
2022/10/22 07:13:21;;;;;;;2.22;0.50;;;13.80;99.90;;;;;;4987581;28;20038;-73
2022/10/22 07:15:53;;;;;;;3.15;0.45;;;13.90;99.90;;;;;;4970607;28;20054;-74
2022/10/22 07:18:20;;;;;;;1.73;0.77;;;14.10;99.90;;;;;;4989530;28;20058;-73
2022/10/22 07:20:47;;;;;;;2.28;0.93;;;14.20;99.90;;;;;;4979918;28;20039;-73
2022/10/22 07:23:14;;;;;;;3.35;0.60;;;14.30;99.90;;;;;;4993796;28;20030;-74
2022/10/22 07:25:44;;;;;;;1.73;0.85;;;14.20;99.90;;;;;;4990931;28;20038;-72
2022/10/22 07:28:10;;;;;;;3.28;0.73;;;14.20;99.90;;;;;;4994516;28;20064;-73
2022/10/22 07:30:37;;;;;;;2.53;0.70;;;14.40;99.90;;;;;;4994314;28;20490;-73
2022/10/22 07:33:04;;;;;;;1.67;0.60;;;14.60;99.90;;;;;;4993377;28;20030;-73
2022/10/22 07:35:30;;;;;;;0.77;0.30;;;14.60;99.90;;;;;;4992515;28;20057;-71
2022/10/22 07:37:56;;;;;;;1.25;0.50;;;14.70;99.90;;;;;;4992237;28;20054;-73
2022/10/22 07:40:23;;;;;;;1.55;0.30;;;14.70;99.90;;;;;;4994090;28;20030;-74
2022/10/22 07:42:49;;;;;;;2.25;0.73;;;14.70;99.90;;;;;;4993798;28;20030;-73
2022/10/22 07:45:15;;;;;;;1.10;0.57;;;14.70;99.90;;;;;;4987703;28;20460;-72
2022/10/22 07:47:42;;;;;;;3.22;0.70;;;14.90;99.90;;;;;;4993602;28;20038;-72
2022/10/22 07:50:09;;;;;;;1.33;0.68;;;15.00;99.90;;;;;;4992465;28;20061;-73
2022/10/22 07:52:35;;;;;;;2.05;0.55;;;15.00;99.90;;;;;;4993614;28;20042;-71
2022/10/22 07:55:01;;;;;;;2.03;0.50;;;14.90;99.90;;;;;;4992314;28;20058;-72
2022/10/22 07:57:27;;;;;;;2.53;0.45;;;14.90;99.90;;;;;;4994041;28;20030;-72
2022/10/22 07:59:55;;;;;;;2.55;0.50;;;15.30;99.90;;;;;;4993780;28;20455;-72
2022/10/22 08:02:21;;;;;;;1.38;0.43;;;15.70;99.90;;;;;;4993789;28;20038;-73
2022/10/22 08:04:47;;;;;;;1.75;0.85;;;16.20;99.90;;;;;;4990478;28;20042;-73
2022/10/22 08:07:13;;;;;;;1.77;0.25;;;16.50;99.90;;;;;;4993814;28;20054;-72
2022/10/22 08:09:40;;;;;;;3.22;0.93;;;16.50;99.90;;;;;;4993306;28;20030;-73
2022/10/22 08:12:06;;;;;;;1.58;0.40;;;16.90;99.90;;;;;;4991825;28;20030;-73
2022/10/22 08:14:33;;;;;;;0.80;0.30;;;16.90;99.90;;;;;;4989335;28;20464;-73
2022/10/22 08:16:59;;;;;;;1.40;0.45;;;17.00;99.90;;;;;;4991227;28;20391;-72
2022/10/22 08:19:27;;;;;;;2.85;0.73;;;17.20;99.90;;;;;;4993151;28;20038;-73
2022/10/22 08:21:53;;;;;;;2.70;0.50;;;17.20;99.90;;;;;;5001001;28;20049;-73
2022/10/22 08:24:19;;;;;;;2.28;0.65;;;17.40;99.90;;;;;;4991545;28;20463;-73
2022/10/22 08:26:45;;;;;;;1.80;0.40;;;17.50;99.90;;;;;;4996863;28;20061;-73
2022/10/22 08:29:12;;;;;;;1.27;0.47;;;17.60;99.90;;;;;;4992782;28;20038;-73
2022/10/22 08:31:38;;;;;;;1.45;0.73;;;17.40;99.90;;;;;;4993202;28;20030;-73
2022/10/22 08:34:04;;;;;;;1.23;0.52;;;17.50;99.90;;;;;;4989487;28;20272;-73
2022/10/22 08:36:30;;;;;;;4.50;0.70;;;17.60;99.90;;;;;;4993019;28;20030;-71
2022/10/22 08:38:57;;;;;;;1.15;0.50;;;17.80;99.90;;;;;;4992283;28;20038;-72
2022/10/22 08:41:23;;;;;;;2.70;0.75;;;18.30;99.90;;;;;;4992922;28;20026;-73
2022/10/22 08:44:09;;;;;;;1.90;0.68;;;18.90;99.90;;;;;;4990728;28;20034;-73
2022/10/22 08:47:14;;;;;;;1.35;0.73;;;19.40;99.90;;;;;;4992711;28;20388;-73
2022/10/22 08:49:42;;;;;;;4.75;0.70;;;19.90;99.90;;;;;;4992325;28;20068;-71
2022/10/22 08:52:17;;;;;;;1.25;0.50;;;20.30;99.90;;;;;;4992133;28;20034;-72
2022/10/22 08:54:51;;;;;;;2.22;0.68;;;20.40;99.90;;;;;;4990959;28;20026;-72
2022/10/22 08:57:42;;;;;;;0.93;0.30;;;20.60;99.90;;;;;;5007045;28;20042;-73
2022/10/22 09:00:22;;;;;;;1.90;0.50;;;21.10;97.80;;;;;;4987288;28;20060;-73
2022/10/22 09:03:17;;;;;;;2.17;0.52;;;21.10;96.30;;;;;;4992070;28;20030;-74
2022/10/22 09:05:46;;;;;;;0.93;0.47;;;21.60;95.00;;;;;;4991042;28;20046;-72
2022/10/22 09:08:16;;;;;;;1.00;0.40;;;21.30;94.00;;;;;;4992659;28;20392;-73
2022/10/22 09:10:49;;;;;;;1.27;0.40;;;21.10;94.50;;;;;;4981448;28;20039;-72
2022/10/22 09:13:19;;;;;;;0.75;0.30;;;21.20;95.10;;;;;;4985898;28;20285;-72
2022/10/22 09:15:51;;;;;;;1.30;0.70;;;21.10;94.20;;;;;;4992021;28;20037;-73
2022/10/22 09:18:39;;;;;;;2.38;0.30;;;20.90;94.60;;;;;;4992355;28;20038;-73
2022/10/22 09:21:12;;;;;;;3.53;0.60;;;20.60;95.80;;;;;;4992080;28;20049;-73
2022/10/22 09:24:14;;;;;;;1.40;0.30;;;20.00;97.30;;;;;;4991208;28;20429;-73
2022/10/22 09:26:40;;;;;;;1.45;0.77;;;19.40;99.90;;;;;;4984738;28;20042;-73
2022/10/22 09:29:16;;;;;;;1.15;0.20;;;18.80;99.90;;;;;;4991822;28;20041;-73
2022/10/22 09:31:43;;;;;;;1.15;0.40;;;18.50;99.90;;;;;;4990816;28;20050;-74
2022/10/22 09:34:12;;;;;;;0.80;0.40;;;18.10;99.90;;;;;;4990358;28;20057;-73
2022/10/22 09:36:38;;;;;;;0.90;0.40;;;18.00;99.90;;;;;;4992136;28;20038;-72
2022/10/22 09:39:21;;;;;;;0.75;0.68;;;18.00;99.90;;;;;;4992784;28;20049;-73
2022/10/22 09:41:48;;;;;;;1.83;0.30;;;18.10;99.90;;;;;;4996375;28;20114;-72
2022/10/22 09:44:17;;;;;;;1.60;0.32;;;18.10;99.90;;;;;;4977257;28;20411;-73
2022/10/22 09:46:44;;;;;;;0.52;0.30;;;18.10;99.90;;;;;;4992475;28;20039;-73
2022/10/22 09:49:17;;;;;;;1.73;0.50;;;18.00;99.90;;;;;;4995130;28;20046;-72
2022/10/22 09:51:59;;;;;;;2.13;0.45;;;18.00;99.90;;;;;;4995845;28;20030;-72
2022/10/22 09:54:31;;;;;;;0.70;0.25;;;17.90;99.90;;;;;;4993592;28;20364;-73
2022/10/22 09:57:17;;;;;;;0.82;0.43;;;18.10;99.90;;;;;;4996039;28;20038;-72
2022/10/22 09:59:46;;;;;;;1.48;0.50;;;18.20;99.90;;;;;;4991690;28;20486;-73
2022/10/22 10:02:21;;;;;;;2.22;0.47;;;18.10;99.90;;;;;;4993853;28;20053;-73
2022/10/22 10:04:51;;;;;;;0.63;0.40;;;18.20;99.90;;;;;;4994345;28;20041;-73
2022/10/22 10:07:23;;;;;;;2.72;0.38;;;18.40;99.90;;;;;;4995790;28;20038;-72
2022/10/22 10:09:50;;;;;;;3.28;0.57;;;18.60;99.90;;;;;;5009406;28;20053;-73
2022/10/22 10:12:39;;;;;;;1.85;0.30;;;18.70;99.90;;;;;;4994717;28;20038;-73
2022/10/22 10:15:29;;;;;;;0.82;0.35;;;18.70;99.90;;;;;;4986265;28;20460;-73
2022/10/22 10:18:27;;;;;;;0.90;0.38;;;18.90;99.90;;;;;;4991045;28;20053;-72
2022/10/22 10:21:17;;;;;;;0.90;0.50;;;19.10;99.90;;;;;;4994041;28;20054;-74
2022/10/22 10:24:03;;;;;;;1.35;0.77;;;19.20;99.70;;;;;;4993767;28;20034;-72
2022/10/22 10:26:44;;;;;;;1.85;0.40;;;19.30;99.20;;;;;;4995251;28;20030;-73
2022/10/22 10:29:26;;;;;;;1.48;0.30;;;19.20;99.50;;;;;;4999545;28;20569;-73
2022/10/22 10:32:09;;;;;;;2.55;0.77;;;18.90;98.60;;;;;;4988788;28;20042;-73
2022/10/22 10:35:04;;;;;;;1.13;0.25;;;18.60;99.90;;;;;;4993754;28;20026;-73
2022/10/22 10:37:40;;;;;;;0.82;0.40;;;18.50;99.90;;;;;;4961509;28;20046;-74
2022/10/22 10:40:15;;;;;;;1.67;0.73;;;18.80;99.90;;;;;;4994360;28;20049;-74
2022/10/22 10:43:17;;;;;;;1.70;0.35;;;19.10;99.60;;;;;;4991691;28;20031;-73
2022/10/22 10:46:37;;;;;;;1.95;0.30;;;19.10;99.90;;;;;;4987706;28;20455;-73
2022/10/22 10:49:22;;;;;;;1.00;0.47;;;19.20;99.90;;;;;;4978014;28;20049;-73
2022/10/22 10:52:03;;;;;;;1.35;0.40;;;19.40;96.60;;;;;;4990485;28;20034;-74
2022/10/22 10:54:48;;;;;;;1.70;0.40;;;19.40;98.90;;;;;;4993348;28;20057;-73
2022/10/22 10:57:45;;;;;;;1.70;0.43;;;19.60;99.30;;;;;;4994212;28;20468;-73
2022/10/22 11:00:16;;;;;;;3.05;0.85;;;19.80;98.40;;;;;;4990142;28;20050;-72
2022/10/22 11:03:24;;;;;;;2.55;0.80;;;19.70;99.30;;;;;;4994740;28;20034;-72
2022/10/22 11:05:56;;;;;;;0.85;0.40;;;19.40;99.00;;;;;;4968333;28;20054;-74
2022/10/22 11:08:36;;;;;;;2.15;0.47;;;19.30;99.40;;;;;;4994589;28;20042;-72
2022/10/22 11:11:21;;;;;;;1.98;0.60;;;19.70;99.70;;;;;;4991629;28;20152;-73
2022/10/22 11:14:00;;;;;;;1.05;0.55;;;19.90;98.30;;;;;;4991574;28;20053;-73
2022/10/22 11:16:35;;;;;;;2.05;0.60;;;19.90;97.80;;;;;;5003127;28;20064;-72
2022/10/22 11:19:04;;;;;;;0.95;0.47;;;19.80;98.00;;;;;;5017056;28;20046;-73
2022/10/22 11:22:04;;;;;;;0.80;0.43;;;19.50;98.60;;;;;;5005677;28;20045;-74
2022/10/22 11:24:52;;;;;;;2.85;0.65;;;19.50;97.90;;;;;;4988392;28;20101;-73
2022/10/22 11:27:30;;;;;;;1.38;0.30;;;19.60;97.80;;;;;;4994684;28;20030;-74
2022/10/22 11:30:02;;;;;;;1.65;0.50;;;19.70;98.70;;;;;;4993842;28;20042;-74
2022/10/22 11:32:29;;;;;;;1.05;0.38;;;19.80;98.40;;;;;;4993153;28;20042;-73
2022/10/22 11:35:00;;;;;;;0.82;0.43;;;19.90;97.40;;;;;;4985444;28;20042;-73
2022/10/22 11:37:34;;;;;;;4.22;0.70;;;19.80;97.90;;;;;;4989341;28;20042;-72
2022/10/22 11:40:17;;;;;;;2.35;0.95;;;20.00;97.40;;;;;;4989215;28;20471;-73
2022/10/22 11:42:49;;;;;;;1.95;0.65;;;20.10;95.70;;;;;;4987427;28;20395;-74
2022/10/22 11:45:15;;;;;;;2.70;1.08;;;20.00;95.70;;;;;;4981239;28;20035;-73
2022/10/22 11:47:52;;;;;;;1.65;0.65;;;20.00;96.10;;;;;;4990140;28;20037;-74
2022/10/22 11:50:42;;;;;;;1.52;0.50;;;19.70;96.90;;;;;;4981874;28;20047;-74
2022/10/22 11:53:11;;;;;;;0.83;0.30;;;19.80;97.80;;;;;;4993458;28;20034;-73
2022/10/22 11:55:47;;;;;;;2.30;0.40;;;19.90;96.90;;;;;;4985557;28;20030;-71
2022/10/22 11:58:31;;;;;;;3.40;0.65;;;20.00;96.10;;;;;;4992489;28;20026;-72
2022/10/22 12:01:09;;;;;;;1.92;0.60;;;20.10;95.90;;;;;;4993010;28;20464;-71
2022/10/22 12:03:43;;;;;;;1.48;0.70;;;20.00;96.70;;;;;;4993396;28;20033;-72
2022/10/22 12:06:13;;;;;;;1.35;0.40;;;20.00;97.50;;;;;;4991788;28;20038;-72
2022/10/22 12:08:47;;;;;;;1.70;0.40;;;20.10;97.80;;;;;;4993789;28;20045;-72
2022/10/22 12:11:19;;;;;;;1.10;0.30;;;20.20;97.10;;;;;;4991466;28;20065;-72
2022/10/22 12:13:57;;;;;;;2.92;0.50;;;20.20;97.20;;;;;;4993045;28;20053;-72
2022/10/22 12:16:56;;;;;;;1.50;0.40;;;20.30;97.30;;;;;;4989408;28;20407;-71
2022/10/22 12:19:43;;;;;;;1.52;0.60;;;20.20;98.10;;;;;;4986573;28;20054;-71
2022/10/22 12:22:15;;;;;;;3.28;0.80;;;20.30;97.90;;;;;;4992644;28;20487;-71
2022/10/22 12:24:45;;;;;;;1.98;0.40;;;20.20;97.00;;;;;;4992435;28;20045;-72
2022/10/22 12:27:18;;;;;;;4.25;0.60;;;20.00;96.50;;;;;;4992028;28;20045;-71
2022/10/22 12:29:45;;;;;;;1.65;0.50;;;20.10;97.00;;;;;;4993054;28;20046;-71
2022/10/22 12:32:13;;;;;;;1.45;0.50;;;20.00;97.10;;;;;;4992088;28;20030;-72
2022/10/22 12:34:51;;;;;;;1.52;0.60;;;19.90;97.30;;;;;;4992615;28;20030;-72
2022/10/22 12:37:18;;;;;;;3.22;0.70;;;20.00;96.60;;;;;;4991629;28;20045;-72
2022/10/22 12:39:45;;;;;;;2.00;0.90;;;20.00;98.80;;;;;;4992548;28;20057;-71
2022/10/22 12:42:16;;;;;;;2.83;1.20;;;20.20;95.90;;;;;;4992572;28;20042;-71
2022/10/22 12:44:43;;;;;;;3.20;0.77;;;19.90;96.80;;;;;;4992012;28;20488;-71
2022/10/22 12:47:15;;;;;;;1.55;0.90;;;19.90;97.00;;;;;;4984576;28;20372;-71
2022/10/22 12:49:45;;;;;;;5.32;1.00;;;20.30;96.20;;;;;;4992724;28;20050;-71
2022/10/22 12:52:21;;;;;;;2.35;0.60;;;20.50;95.30;;;;;;4992142;28;20045;-70
2022/10/22 12:54:51;;;;;;;1.42;0.60;;;20.50;95.20;;;;;;4992541;28;20472;-71
2022/10/22 12:57:19;;;;;;;2.75;0.75;;;20.60;93.90;;;;;;4990438;28;20038;-71
2022/10/22 12:59:50;;;;;;;2.30;0.50;;;20.70;94.50;;;;;;4992677;28;20042;-71
2022/10/22 13:02:20;;;;;;;2.90;0.85;;;20.90;95.00;;;;;;4991530;28;20046;-71
2022/10/22 13:05:05;;;;;;;;;;;21.00;94.20;;;;;;4992761;28;20045;-70
2022/10/22 13:07:40;;;;;;;2.03;0.60;;;20.90;93.90;;;;;;4990982;28;19909;-72
2022/10/22 13:10:18;;;;;;;2.28;0.80;;;20.70;94.20;;;;;;4987102;28;20034;-72
2022/10/22 13:12:49;;;;;;;1.67;0.50;;;20.80;94.00;;;;;;4992815;28;20034;-71